KMKG/MKG METAR and TAF weather

Enter ICAO airport designator
Station Type Date Time Source
KMKG METAR 2019/12/06 01:55 UTC NOAA

KMKG 060155Z 15005KT 10SM OVC100 03/M01 A2996 RMK AO2 SLP149 T00331011


Station Type Date Time Source
KMKG Decoded METAR 2019/12/06 01:55 UTC NOAA

MUSKEGON COUNTY AIRPORT, MI, United States (KMKG) 43-10N 086-14W 191M
Dec 05, 2019 - 08:55 PM EST / 2019.12.06 0155 UTC
Wind: from the SSE (150 degrees) at 6 MPH (5 KT):0
Visibility: 10 mile(s):0
Sky conditions: overcast
Temperature: 37.9 F (3.3 C)
Dew Point: 30.0 F (-1.1 C)
Relative Humidity: 72%
Pressure (altimeter): 29.96 in. Hg (1014 hPa)
ob: KMKG 060155Z 15005KT 10SM OVC100 03/M01 A2996 RMK AO2 SLP149 T00331011
cycle: 2

Station Type Date Time Source
KMKG TAF 2019/12/05 18:30 UTC NOAA

TAF KMKG 051727Z 0518/0618 24006KT P6SM OVC090
FM052300 17007KT P6SM FEW045 OVC080
FM060600 26010G18KT P6SM OVC015
FM061100 32010G18KT P6SM OVC025

Example: see airport list